Time;durP1;ratioP1;P1;durP2;ratioP2;P2;SDS_P1;SDS_P2;PMS_P1;PMS_P2;Temp;Humidity;BMP_temperature;BMP_pressure;BME280_temperature;BME280_humidity;BME280_pressure;Samples;Min_cycle;Max_cycle;Signal;HPM_P1;HPM_P2
2020/12/19 00:00:00;;;;;;;6.50;2.17;;;3.80;98.00;;;;;;5033145;28;20501;-68
2020/12/19 00:02:27;;;;;;;1.97;1.63;;;3.90;98.00;;;;;;5031356;28;20450;-66
2020/12/19 00:04:53;;;;;;;1.20;1.00;;;3.80;98.00;;;;;;5033128;28;20973;-67
2020/12/19 00:07:20;;;;;;;1.37;1.20;;;3.70;98.00;;;;;;5031160;28;20508;-68
2020/12/19 00:09:46;;;;;;;2.27;1.53;;;3.60;98.00;;;;;;5032923;28;20454;-67
2020/12/19 00:12:14;;;;;;;2.60;1.20;;;3.40;98.00;;;;;;5031324;28;20629;-67
2020/12/19 00:14:40;;;;;;;1.97;1.60;;;3.40;98.00;;;;;;5031715;28;20826;-68
2020/12/19 00:17:07;;;;;;;1.80;1.50;;;3.30;98.00;;;;;;5030183;28;20615;-67
2020/12/19 00:19:33;;;;;;;1.20;1.10;;;3.40;98.00;;;;;;5031464;28;20960;-67
2020/12/19 00:22:00;;;;;;;2.60;1.80;;;3.40;98.00;;;;;;5031010;28;20561;-67
2020/12/19 00:24:26;;;;;;;1.30;1.10;;;3.30;98.00;;;;;;5015096;28;20516;-68
2020/12/19 00:26:53;;;;;;;1.87;1.57;;;3.40;98.00;;;;;;5029683;28;20815;-67
2020/12/19 00:29:20;;;;;;;1.20;1.10;;;3.40;98.00;;;;;;5032819;28;20458;-67
2020/12/19 00:31:48;;;;;;;2.30;1.30;;;3.40;98.00;;;;;;5030825;28;20901;-67
2020/12/19 00:34:14;;;;;;;1.20;1.00;;;3.40;98.00;;;;;;5032504;28;20818;-67
2020/12/19 00:36:41;;;;;;;1.20;1.10;;;3.50;98.00;;;;;;5030742;28;20469;-68
2020/12/19 00:39:07;;;;;;;1.20;1.00;;;3.60;98.00;;;;;;5031214;28;20462;-67
2020/12/19 00:41:34;;;;;;;6.10;2.00;;;3.40;98.00;;;;;;5030498;28;21407;-68
2020/12/19 00:44:01;;;;;;;1.40;1.30;;;3.30;98.00;;;;;;5031071;28;20528;-67
2020/12/19 00:46:28;;;;;;;1.30;1.20;;;3.20;98.00;;;;;;5030481;28;20481;-67
2020/12/19 00:48:55;;;;;;;1.63;1.20;;;3.20;98.00;;;;;;5032379;28;20534;-67
2020/12/19 00:51:23;;;;;;;1.87;1.40;;;3.20;98.00;;;;;;5030489;28;20458;-67
2020/12/19 00:53:50;;;;;;;1.73;1.30;;;3.00;98.00;;;;;;5032224;28;20451;-67
2020/12/19 00:56:20;;;;;;;1.20;1.20;;;3.00;98.00;;;;;;5031014;28;20948;-67
2020/12/19 00:58:47;;;;;;;5.43;1.53;;;3.00;98.00;;;;;;5032175;28;20520;-67
2020/12/19 01:01:15;;;;;;;2.90;1.93;;;3.00;98.00;;;;;;5031870;28;20512;-68
2020/12/19 01:03:43;;;;;;;2.27;2.13;;;3.00;98.00;;;;;;5031628;28;20471;-67
2020/12/19 01:06:14;;;;;;;1.43;1.37;;;3.00;98.00;;;;;;5032188;28;20492;-67
2020/12/19 01:08:40;;;;;;;1.20;1.13;;;3.10;98.00;;;;;;5030521;28;20466;-68
2020/12/19 01:11:07;;;;;;;1.30;1.10;;;3.30;98.00;;;;;;5031878;28;20952;-68
2020/12/19 01:13:33;;;;;;;4.80;2.40;;;3.60;98.00;;;;;;5030063;28;20885;-66
2020/12/19 01:16:00;;;;;;;1.50;1.40;;;3.80;98.00;;;;;;5031758;28;20974;-68
2020/12/19 01:18:26;;;;;;;1.83;1.63;;;3.50;98.00;;;;;;5029916;28;20829;-67
2020/12/19 01:20:53;;;;;;;1.83;1.40;;;3.50;98.00;;;;;;5030393;28;20458;-67
2020/12/19 01:23:20;;;;;;;1.60;1.20;;;3.50;98.00;;;;;;5029869;28;20473;-68
2020/12/19 01:25:46;;;;;;;1.40;1.40;;;3.40;98.00;;;;;;5031651;28;20462;-66
2020/12/19 01:28:13;;;;;;;2.70;1.50;;;3.30;98.00;;;;;;5028576;28;20492;-67
2020/12/19 01:30:39;;;;;;;1.83;1.73;;;3.30;98.00;;;;;;5031570;28;20462;-67
2020/12/19 01:33:06;;;;;;;2.33;1.60;;;3.50;98.00;;;;;;5028340;28;20493;-67
2020/12/19 01:35:32;;;;;;;1.20;1.00;;;3.60;98.00;;;;;;5013981;28;20845;-67
2020/12/19 01:38:00;;;;;;;1.20;1.10;;;3.70;98.00;;;;;;5028489;28;20463;-66
2020/12/19 01:40:26;;;;;;;3.63;2.40;;;3.30;98.00;;;;;;5031157;28;20466;-67
2020/12/19 01:42:53;;;;;;;3.13;1.77;;;3.20;98.00;;;;;;5029616;28;20453;-68
2020/12/19 01:45:19;;;;;;;1.70;1.40;;;3.20;98.00;;;;;;5030918;28;20457;-68
2020/12/19 01:47:46;;;;;;;3.30;1.90;;;3.10;98.00;;;;;;5029550;28;20761;-68
2020/12/19 01:50:13;;;;;;;2.23;1.63;;;2.90;98.00;;;;;;5031057;28;20469;-66
2020/12/19 01:52:41;;;;;;;1.20;1.17;;;2.90;98.00;;;;;;5029293;28;20485;-67
2020/12/19 01:55:08;;;;;;;1.47;1.23;;;2.80;98.00;;;;;;5031194;28;20455;-67
2020/12/19 01:57:41;;;;;;;1.70;1.60;;;2.90;98.00;;;;;;5028063;28;20462;-67
2020/12/19 02:00:08;;;;;;;1.93;1.30;;;2.90;98.00;;;;;;5031041;28;20483;-67
2020/12/19 02:02:35;;;;;;;1.80;1.30;;;2.80;98.00;;;;;;5029212;28;20462;-66
2020/12/19 02:05:01;;;;;;;1.97;1.20;;;2.80;98.00;;;;;;5031017;28;20465;-67
2020/12/19 02:07:28;;;;;;;1.97;1.47;;;2.70;98.00;;;;;;5029047;28;20835;-67
2020/12/19 02:09:55;;;;;;;1.93;1.30;;;2.70;98.00;;;;;;5030927;28;20473;-67
2020/12/19 02:12:22;;;;;;;1.47;1.37;;;2.70;98.00;;;;;;5029032;28;20520;-67
2020/12/19 02:14:48;;;;;;;2.77;2.23;;;2.60;98.00;;;;;;5030951;28;20501;-67
2020/12/19 02:17:15;;;;;;;1.20;1.10;;;2.50;98.00;;;;;;5028905;28;20528;-68
2020/12/19 02:19:42;;;;;;;2.07;1.53;;;2.50;98.00;;;;;;5030883;28;20473;-68
2020/12/19 02:22:10;;;;;;;1.50;1.10;;;2.60;98.00;;;;;;5028859;28;20474;-66
2020/12/19 02:24:37;;;;;;;2.03;1.40;;;2.60;98.00;;;;;;5029525;28;20501;-66
2020/12/19 02:27:04;;;;;;;1.77;1.40;;;2.60;98.00;;;;;;5029222;28;20464;-68
2020/12/19 02:29:32;;;;;;;1.20;0.90;;;2.70;98.00;;;;;;5030971;28;20465;-67
2020/12/19 02:32:01;;;;;;;2.37;1.60;;;2.70;98.00;;;;;;5027811;28;20644;-67
2020/12/19 02:34:27;;;;;;;1.20;1.10;;;2.70;98.00;;;;;;5030807;28;20552;-66
2020/12/19 02:36:54;;;;;;;1.20;1.17;;;2.70;98.00;;;;;;5028977;28;20482;-66
2020/12/19 02:39:20;;;;;;;1.57;1.40;;;2.60;98.00;;;;;;5030956;28;20489;-67
2020/12/19 02:41:49;;;;;;;1.50;1.13;;;2.60;98.00;;;;;;5032989;28;20466;-67
2020/12/19 02:44:17;;;;;;;1.30;1.20;;;2.60;98.00;;;;;;5033511;28;20469;-68
2020/12/19 02:46:44;;;;;;;2.10;1.50;;;2.50;98.00;;;;;;5032963;28;20476;-67
2020/12/19 02:49:11;;;;;;;1.40;1.30;;;2.40;98.00;;;;;;5034619;28;20587;-67
2020/12/19 02:51:37;;;;;;;1.20;1.10;;;2.40;98.00;;;;;;5032644;28;20857;-67
2020/12/19 02:54:04;;;;;;;1.20;1.13;;;2.30;98.00;;;;;;5034472;28;20520;-66
2020/12/19 02:56:31;;;;;;;1.60;1.30;;;2.20;98.00;;;;;;5032708;28;20457;-68
2020/12/19 02:58:58;;;;;;;1.20;1.00;;;2.20;98.00;;;;;;5034372;28;20477;-67
2020/12/19 03:01:29;;;;;;;3.20;2.37;;;2.30;98.00;;;;;;5034503;28;20458;-66
2020/12/19 03:03:55;;;;;;;1.90;1.90;;;2.30;98.00;;;;;;5034234;28;21045;-66
2020/12/19 03:06:22;;;;;;;2.07;1.50;;;2.20;98.00;;;;;;5034158;28;20970;-67
2020/12/19 03:08:49;;;;;;;1.80;1.47;;;2.10;98.00;;;;;;5032490;28;20524;-68
2020/12/19 03:11:16;;;;;;;1.20;1.10;;;2.00;98.00;;;;;;5033916;28;20472;-67
2020/12/19 03:13:43;;;;;;;1.40;1.20;;;2.00;98.00;;;;;;5032335;28;20465;-67
2020/12/19 03:16:10;;;;;;;1.20;1.10;;;2.10;98.00;;;;;;5034046;28;20469;-67
2020/12/19 03:18:38;;;;;;;1.30;1.30;;;2.20;98.00;;;;;;5032156;28;20465;-67
2020/12/19 03:21:04;;;;;;;1.80;1.57;;;2.20;98.00;;;;;;5033664;28;20528;-68
2020/12/19 03:23:31;;;;;;;8.33;1.63;;;2.30;98.00;;;;;;5032013;28;20488;-68
2020/12/19 03:25:57;;;;;;;1.80;1.43;;;2.30;98.00;;;;;;5016136;28;20457;-67
2020/12/19 03:28:24;;;;;;;1.20;1.10;;;2.30;98.00;;;;;;5031979;28;20814;-66
2020/12/19 03:30:50;;;;;;;2.17;2.03;;;2.20;98.00;;;;;;5032052;28;20554;-68
2020/12/19 03:33:18;;;;;;;2.33;1.93;;;2.30;98.00;;;;;;5030861;28;20976;-66
2020/12/19 03:35:44;;;;;;;1.20;1.00;;;2.20;98.00;;;;;;5033779;28;20799;-66
2020/12/19 03:38:11;;;;;;;2.33;1.47;;;2.10;98.00;;;;;;5031974;28;20964;-67
2020/12/19 03:40:37;;;;;;;1.97;1.20;;;2.30;98.00;;;;;;5032287;28;20469;-67
2020/12/19 03:43:04;;;;;;;1.67;1.30;;;2.30;98.00;;;;;;5031915;28;20450;-67
2020/12/19 03:45:30;;;;;;;1.43;1.33;;;2.30;98.00;;;;;;5032180;28;20785;-67
2020/12/19 03:47:57;;;;;;;2.53;1.87;;;2.30;98.00;;;;;;5031544;28;20489;-67
2020/12/19 03:50:24;;;;;;;7.60;3.00;;;2.20;98.00;;;;;;5033298;28;20470;-66
2020/12/19 03:52:50;;;;;;;1.20;1.00;;;2.10;98.00;;;;;;5030559;28;20556;-67
2020/12/19 03:55:17;;;;;;;1.83;1.80;;;2.00;98.00;;;;;;5033474;28;20519;-68
2020/12/19 03:57:45;;;;;;;1.17;1.10;;;2.00;98.00;;;;;;5031726;28;20830;-67
2020/12/19 04:00:11;;;;;;;2.80;1.97;;;2.10;98.00;;;;;;5033452;28;20488;-67
2020/12/19 04:02:39;;;;;;;1.30;1.10;;;2.20;98.00;;;;;;5031472;28;20473;-68
2020/12/19 04:05:08;;;;;;;2.30;2.13;;;2.30;98.00;;;;;;5033295;28;20516;-67
2020/12/19 04:07:40;;;;;;;1.20;1.00;;;2.20;98.00;;;;;;5031207;28;20965;-68
2020/12/19 04:10:08;;;;;;;1.20;1.00;;;2.20;98.00;;;;;;5032247;28;20949;-68
2020/12/19 04:12:38;;;;;;;1.50;1.40;;;2.20;98.00;;;;;;5030904;28;20489;-67
2020/12/19 04:15:07;;;;;;;1.20;1.00;;;2.10;98.00;;;;;;5032933;28;20457;-66
2020/12/19 04:17:36;;;;;;;3.30;2.03;;;2.10;98.00;;;;;;5031060;28;20840;-67
2020/12/19 04:20:03;;;;;;;2.70;1.27;;;2.00;98.00;;;;;;5031991;28;20462;-68
2020/12/19 04:22:32;;;;;;;2.03;1.40;;;1.80;98.00;;;;;;5030772;28;20473;-66
2020/12/19 04:25:00;;;;;;;3.40;2.00;;;1.90;98.00;;;;;;5032621;28;20454;-66
2020/12/19 04:27:35;;;;;;;1.10;0.90;;;1.90;98.00;;;;;;5030831;28;20535;-66
2020/12/19 04:30:02;;;;;;;1.23;1.10;;;1.80;98.00;;;;;;5032637;28;20539;-67
2020/12/19 04:32:29;;;;;;;1.80;1.57;;;1.80;98.00;;;;;;5030917;28;20533;-67
2020/12/19 04:34:56;;;;;;;1.20;1.10;;;1.80;98.00;;;;;;5031369;28;20454;-67
2020/12/19 04:37:24;;;;;;;1.47;1.43;;;1.80;98.00;;;;;;5030798;28;20461;-66
2020/12/19 04:39:51;;;;;;;1.40;1.30;;;1.70;98.00;;;;;;5032193;28;20506;-67
2020/12/19 04:42:23;;;;;;;1.20;1.00;;;1.80;98.00;;;;;;5030513;28;20918;-66
2020/12/19 04:44:50;;;;;;;1.30;1.10;;;1.80;98.00;;;;;;5031605;28;20465;-68
2020/12/19 04:47:17;;;;;;;1.87;1.83;;;1.80;98.00;;;;;;5029294;28;20454;-67
2020/12/19 04:49:45;;;;;;;2.80;2.03;;;1.70;98.00;;;;;;5032356;28;20455;-67
2020/12/19 04:52:13;;;;;;;1.43;1.37;;;1.70;98.00;;;;;;5030172;28;20490;-67
2020/12/19 04:54:40;;;;;;;1.20;1.13;;;1.80;98.00;;;;;;5032177;28;20940;-67
2020/12/19 04:57:11;;;;;;;1.20;1.00;;;1.80;98.00;;;;;;5030426;28;20512;-66
2020/12/19 04:59:39;;;;;;;1.20;1.00;;;1.90;98.00;;;;;;5031981;28;20497;-68
2020/12/19 05:02:05;;;;;;;1.43;1.37;;;1.90;98.00;;;;;;5029929;28;20917;-67
2020/12/19 05:04:32;;;;;;;1.70;1.40;;;1.80;98.00;;;;;;5030603;28;20470;-67
2020/12/19 05:06:58;;;;;;;10.20;1.83;;;2.00;98.00;;;;;;5029159;28;20477;-69
2020/12/19 05:09:24;;;;;;;4.53;2.33;;;1.90;98.00;;;;;;5030859;28;20864;-67
2020/12/19 05:11:51;;;;;;;1.40;1.20;;;2.00;98.00;;;;;;5029916;28;20485;-67
2020/12/19 05:14:20;;;;;;;1.33;1.20;;;2.00;98.00;;;;;;5031908;28;20931;-67
2020/12/19 05:16:48;;;;;;;1.20;1.03;;;2.00;98.00;;;;;;5029971;28;20885;-66
2020/12/19 05:19:16;;;;;;;3.10;1.43;;;1.90;98.00;;;;;;5031859;28;20488;-66
2020/12/19 05:21:45;;;;;;;1.20;1.00;;;1.80;98.00;;;;;;5029675;28;20470;-68
2020/12/19 05:24:14;;;;;;;1.20;1.20;;;1.60;98.00;;;;;;5031800;28;20462;-66
2020/12/19 05:26:41;;;;;;;2.37;1.50;;;1.60;98.00;;;;;;5030366;28;20465;-67
2020/12/19 05:29:08;;;;;;;1.40;1.30;;;1.50;98.00;;;;;;5031043;28;20834;-67
2020/12/19 05:31:35;;;;;;;1.50;1.17;;;1.40;98.00;;;;;;5030217;28;20468;-66
2020/12/19 05:34:03;;;;;;;1.20;1.10;;;1.50;98.00;;;;;;5029757;28;20569;-66
2020/12/19 05:36:30;;;;;;;1.10;0.90;;;1.60;98.00;;;;;;5031383;28;20519;-68
2020/12/19 05:39:01;;;;;;;1.17;1.00;;;1.60;98.00;;;;;;5029493;28;20497;-66
2020/12/19 05:41:28;;;;;;;2.13;1.43;;;1.80;98.00;;;;;;5031311;28;20827;-67
2020/12/19 05:43:55;;;;;;;4.57;1.60;;;1.90;98.00;;;;;;5028328;28;20454;-66
2020/12/19 05:46:29;;;;;;;1.93;1.70;;;1.80;98.00;;;;;;5031262;28;20465;-67
2020/12/19 05:48:55;;;;;;;1.17;1.00;;;1.70;98.00;;;;;;5029264;28;20460;-67
2020/12/19 05:51:25;;;;;;;1.20;1.00;;;1.60;98.00;;;;;;5031112;28;20476;-67
2020/12/19 05:53:52;;;;;;;1.20;1.03;;;1.70;98.00;;;;;;5028959;28;20549;-68
2020/12/19 05:56:20;;;;;;;2.80;1.10;;;1.70;98.00;;;;;;5029639;28;20457;-67
2020/12/19 05:58:47;;;;;;;1.20;1.10;;;1.60;98.00;;;;;;5029033;28;20460;-66
2020/12/19 06:01:16;;;;;;;1.40;1.27;;;1.50;98.00;;;;;;5031177;28;20461;-67
2020/12/19 06:03:45;;;;;;;1.30;1.10;;;1.60;98.00;;;;;;5029049;28;20519;-66
2020/12/19 06:06:13;;;;;;;1.20;1.00;;;1.50;98.00;;;;;;5030952;28;20832;-67
2020/12/19 06:08:41;;;;;;;2.80;1.30;;;1.50;98.00;;;;;;5029100;28;20482;-67
2020/12/19 06:11:14;;;;;;;2.43;1.87;;;1.50;98.00;;;;;;5030650;28;20465;-67
2020/12/19 06:13:45;;;;;;;1.40;1.30;;;1.60;98.00;;;;;;5028811;28;20551;-67
2020/12/19 06:16:13;;;;;;;1.20;1.00;;;1.60;98.00;;;;;;5029046;28;20549;-66
2020/12/19 06:18:55;;;;;;;1.20;1.10;;;1.70;98.00;;;;;;5029080;28;20470;-67
2020/12/19 06:21:21;;;;;;;2.23;1.63;;;1.80;98.00;;;;;;5030743;28;20982;-67
2020/12/19 06:23:49;;;;;;;1.77;1.63;;;1.80;98.00;;;;;;5028803;28;20458;-68
2020/12/19 06:26:15;;;;;;;2.63;1.70;;;1.80;98.00;;;;;;5029600;28;20462;-66
2020/12/19 06:28:47;;;;;;;1.50;1.43;;;1.80;98.00;;;;;;5029022;28;20500;-67
2020/12/19 06:31:17;;;;;;;1.93;1.50;;;1.70;98.00;;;;;;5030574;28;20473;-66
2020/12/19 06:33:46;;;;;;;1.20;0.90;;;1.60;98.00;;;;;;5028747;28;20964;-66
2020/12/19 06:36:18;;;;;;;3.43;1.87;;;1.40;98.00;;;;;;5030528;28;20495;-66
2020/12/19 06:38:46;;;;;;;1.30;1.20;;;1.40;98.00;;;;;;5028778;28;20473;-67
2020/12/19 06:41:45;;;;;;;1.20;1.00;;;1.20;98.00;;;;;;5030767;28;20496;-66
2020/12/19 06:44:13;;;;;;;1.50;1.30;;;1.20;98.00;;;;;;5029160;28;20551;-68
2020/12/19 06:46:40;;;;;;;1.20;1.00;;;1.20;98.00;;;;;;5030573;28;20601;-66
2020/12/19 06:49:25;;;;;;;4.03;2.03;;;;;;;;;;5028799;28;20513;-67
2020/12/19 06:52:06;;;;;;;1.30;1.17;;;1.60;98.00;;;;;;5029763;28;20946;-67
2020/12/19 06:54:34;;;;;;;1.70;1.30;;;1.70;98.00;;;;;;5030747;28;20875;-67
2020/12/19 06:57:02;;;;;;;1.20;1.10;;;1.50;98.00;;;;;;5029017;28;20469;-67
2020/12/19 06:59:30;;;;;;;1.20;1.03;;;1.40;98.00;;;;;;5030528;28;20462;-66
2020/12/19 07:02:20;;;;;;;1.30;1.10;;;1.30;98.00;;;;;;5028764;28;20464;-67
2020/12/19 07:04:47;;;;;;;12.80;1.57;;;1.10;98.00;;;;;;5030415;28;20797;-68
2020/12/19 07:07:16;;;;;;;3.53;2.23;;;1.00;98.00;;;;;;5028554;28;20450;-66
2020/12/19 07:09:55;;;;;;;1.70;1.57;;;0.90;98.00;;;;;;5030244;28;20575;-66
2020/12/19 07:12:36;;;;;;;1.20;1.13;;;0.90;98.00;;;;;;5028512;28;20484;-66
2020/12/19 07:15:06;;;;;;;1.20;1.00;;;0.90;98.00;;;;;;5028979;28;20465;-67
2020/12/19 07:17:44;;;;;;;2.03;1.60;;;1.00;98.00;;;;;;5028529;28;20469;-66
2020/12/19 07:20:11;;;;;;;1.20;1.10;;;1.10;98.00;;;;;;5030196;28;20461;-68
2020/12/19 07:22:38;;;;;;;1.50;1.30;;;1.20;98.00;;;;;;5028453;28;20476;-67
2020/12/19 07:25:04;;;;;;;1.70;1.30;;;1.10;98.00;;;;;;5030001;28;20845;-66
2020/12/19 07:27:31;;;;;;;1.20;1.03;;;1.10;98.00;;;;;;5031587;28;20877;-67
2020/12/19 07:30:02;;;;;;;1.50;1.30;;;1.00;98.00;;;;;;5033460;28;20458;-67
2020/12/19 07:32:29;;;;;;;1.77;1.20;;;1.10;98.00;;;;;;5031759;28;20493;-66
2020/12/19 07:34:56;;;;;;;2.23;1.57;;;1.00;98.00;;;;;;5033373;28;20515;-67
2020/12/19 07:37:23;;;;;;;3.97;2.07;;;1.10;98.00;;;;;;5031988;28;20458;-68
2020/12/19 07:39:49;;;;;;;1.20;1.10;;;1.30;98.00;;;;;;5033416;28;20457;-68
2020/12/19 07:42:16;;;;;;;1.90;1.40;;;1.30;98.00;;;;;;5031989;28;20473;-67
2020/12/19 07:44:45;;;;;;;2.07;1.83;;;1.40;98.00;;;;;;5033432;28;20457;-67
2020/12/19 07:47:13;;;;;;;2.00;1.67;;;1.30;98.00;;;;;;5032076;28;20542;-66
2020/12/19 07:49:51;;;;;;;1.93;1.60;;;1.50;98.00;;;;;;5033383;28;20465;-67
2020/12/19 07:52:19;;;;;;;1.60;1.57;;;1.30;98.00;;;;;;5031660;28;20492;-66
2020/12/19 07:54:54;;;;;;;2.23;1.77;;;1.20;98.00;;;;;;5033340;28;20469;-66
2020/12/19 07:57:21;;;;;;;1.80;1.73;;;1.30;98.00;;;;;;5031633;28;20460;-66
2020/12/19 07:59:48;;;;;;;1.20;1.10;;;1.30;98.00;;;;;;5033126;28;20458;-66
2020/12/19 08:02:17;;;;;;;2.23;1.60;;;1.30;98.00;;;;;;5031589;28;20469;-67
2020/12/19 08:04:52;;;;;;;1.20;1.13;;;1.20;98.00;;;;;;5033239;28;20600;-65
2020/12/19 08:07:20;;;;;;;2.13;1.57;;;1.20;98.00;;;;;;5031383;28;20837;-66
2020/12/19 08:09:46;;;;;;;1.20;1.10;;;1.30;98.00;;;;;;5032947;28;20954;-67
2020/12/19 08:12:13;;;;;;;1.20;1.10;;;1.40;98.00;;;;;;5030994;28;20485;-66
2020/12/19 08:14:41;;;;;;;2.53;2.17;;;1.40;98.00;;;;;;5032938;28;20453;-66
2020/12/19 08:17:13;;;;;;;2.13;1.73;;;1.30;98.00;;;;;;5030918;28;20484;-66
2020/12/19 08:19:42;;;;;;;3.10;1.77;;;1.40;98.00;;;;;;5031835;28;20457;-67
2020/12/19 08:22:10;;;;;;;2.23;1.50;;;1.40;98.00;;;;;;5029702;28;20474;-67
2020/12/19 08:24:37;;;;;;;1.43;1.27;;;1.50;98.00;;;;;;5032786;28;20462;-67
2020/12/19 08:27:40;;;;;;;1.60;1.47;;;1.60;98.00;;;;;;5029908;28;20462;-66
2020/12/19 08:30:12;;;;;;;2.60;2.07;;;1.60;98.00;;;;;;5032602;28;20471;-67
2020/12/19 08:32:44;;;;;;;2.90;1.30;;;1.60;98.00;;;;;;5030568;28;20485;-67
2020/12/19 08:35:18;;;;;;;1.20;1.20;;;1.50;98.00;;;;;;5032496;28;20469;-65
2020/12/19 08:37:45;;;;;;;4.37;3.43;;;1.50;98.00;;;;;;5030116;28;20466;-67
2020/12/19 08:40:14;;;;;;;2.20;2.00;;;1.60;98.00;;;;;;5032369;28;20466;-68
2020/12/19 08:42:41;;;;;;;2.43;2.13;;;1.70;98.00;;;;;;5030464;28;20458;-66
2020/12/19 08:45:27;;;;;;;1.30;1.30;;;1.70;98.00;;;;;;5032223;28;20460;-67
2020/12/19 08:48:02;;;;;;;2.47;1.73;;;1.80;98.00;;;;;;5029541;28;20508;-67
2020/12/19 08:50:35;;;;;;;1.43;1.37;;;1.90;98.00;;;;;;5031556;28;20469;-68
2020/12/19 08:53:10;;;;;;;5.53;2.37;;;1.90;98.00;;;;;;5029850;28;20494;-67
2020/12/19 08:55:37;;;;;;;3.20;1.90;;;2.00;98.00;;;;;;5032048;28;20461;-69
2020/12/19 08:58:05;;;;;;;2.33;2.13;;;2.00;98.00;;;;;;5029876;28;20608;-67
2020/12/19 09:00:38;;;;;;;6.43;3.10;;;2.10;98.00;;;;;;5031829;28;20492;-68
2020/12/19 09:03:07;;;;;;;3.23;2.07;;;2.00;98.00;;;;;;5030142;28;20541;-69
2020/12/19 09:05:48;;;;;;;3.30;1.40;;;2.00;98.00;;;;;;5031819;28;20453;-67
2020/12/19 09:08:15;;;;;;;1.57;1.40;;;2.10;98.00;;;;;;5029872;28;20489;-69
2020/12/19 09:10:43;;;;;;;1.60;1.50;;;2.10;98.00;;;;;;5031746;28;20612;-67
2020/12/19 09:13:12;;;;;;;4.53;2.57;;;2.20;98.00;;;;;;5030164;28;20514;-68
2020/12/19 09:15:41;;;;;;;1.43;1.37;;;2.20;98.00;;;;;;5030669;28;20505;-67
2020/12/19 09:18:15;;;;;;;2.80;1.77;;;2.30;98.00;;;;;;5029097;28;20466;-68
2020/12/19 09:20:50;;;;;;;2.40;1.47;;;2.30;98.00;;;;;;5031497;28;20940;-67
2020/12/19 09:23:17;;;;;;;1.50;1.20;;;2.50;98.00;;;;;;5030774;28;20453;-68
2020/12/19 09:25:45;;;;;;;3.33;1.57;;;2.50;98.00;;;;;;5031666;28;20504;-67
2020/12/19 09:28:11;;;;;;;1.30;1.20;;;2.70;98.00;;;;;;5029121;28;20458;-67
2020/12/19 09:30:38;;;;;;;1.60;1.40;;;2.70;98.00;;;;;;5031571;28;20466;-67
2020/12/19 09:33:05;;;;;;;1.90;1.10;;;2.80;98.00;;;;;;5012670;28;20501;-67
2020/12/19 09:35:32;;;;;;;5.23;2.57;;;2.80;98.00;;;;;;5031560;28;20508;-66
2020/12/19 09:37:59;;;;;;;1.20;1.00;;;2.90;98.00;;;;;;5029799;28;20458;-66
2020/12/19 09:40:32;;;;;;;2.53;1.67;;;2.90;98.00;;;;;;5031415;28;20466;-67
2020/12/19 09:42:58;;;;;;;1.20;1.00;;;3.00;98.00;;;;;;5029553;28;20508;-68
2020/12/19 09:45:26;;;;;;;2.33;1.60;;;3.00;98.00;;;;;;5031336;28;20524;-67
2020/12/19 09:47:55;;;;;;;1.40;1.13;;;3.10;98.00;;;;;;5028673;28;20830;-69
2020/12/19 09:50:22;;;;;;;1.77;1.70;;;3.10;98.00;;;;;;5030367;28;20455;-68
2020/12/19 09:52:50;;;;;;;1.40;1.30;;;3.10;98.00;;;;;;5029711;28;20486;-69
2020/12/19 09:55:18;;;;;;;1.20;1.20;;;3.20;98.00;;;;;;5031216;28;21129;-65
2020/12/19 09:57:45;;;;;;;3.47;2.43;;;3.40;98.00;;;;;;5030763;28;20953;-65
2020/12/19 10:00:12;;;;;;;1.50;1.10;;;3.40;98.00;;;;;;5031456;28;20830;-65
2020/12/19 10:02:39;;;;;;;1.20;1.10;;;3.40;98.00;;;;;;5030649;28;20960;-65
2020/12/19 10:05:07;;;;;;;1.20;1.10;;;3.50;98.00;;;;;;5031421;28;20466;-67
2020/12/19 10:07:34;;;;;;;1.20;0.90;;;3.60;98.00;;;;;;5029303;28;20465;-66
2020/12/19 10:10:03;;;;;;;1.10;1.00;;;3.70;98.00;;;;;;5030908;28;20463;-66
2020/12/19 10:12:31;;;;;;;2.03;1.83;;;3.80;98.00;;;;;;5028061;28;20518;-66
2020/12/19 10:14:57;;;;;;;2.50;1.30;;;3.90;98.00;;;;;;5030922;28;20804;-68
2020/12/19 10:17:24;;;;;;;1.20;1.10;;;3.90;98.00;;;;;;5029463;28;20466;-65
2020/12/19 10:19:50;;;;;;;1.80;1.70;;;3.90;98.00;;;;;;5030664;28;20484;-68
2020/12/19 10:22:17;;;;;;;2.33;1.40;;;4.00;98.00;;;;;;5029311;28;20795;-68
2020/12/19 10:24:45;;;;;;;1.50;1.50;;;4.00;98.00;;;;;;5030613;28;20464;-66
2020/12/19 10:27:12;;;;;;;2.27;1.97;;;4.10;98.00;;;;;;5030133;28;20474;-67
2020/12/19 10:29:41;;;;;;;1.60;1.50;;;4.20;98.00;;;;;;5029390;28;20463;-67
2020/12/19 10:32:08;;;;;;;2.80;1.93;;;4.30;98.00;;;;;;5030476;28;20472;-68
2020/12/19 10:34:35;;;;;;;1.20;1.20;;;4.40;98.00;;;;;;5029264;28;20886;-68
2020/12/19 10:37:01;;;;;;;2.50;1.83;;;4.50;98.00;;;;;;5030794;28;20459;-68
2020/12/19 10:39:28;;;;;;;1.30;1.10;;;4.60;98.00;;;;;;5029353;28;20462;-67
2020/12/19 10:41:55;;;;;;;1.40;1.30;;;4.70;98.00;;;;;;5030432;28;20970;-67
2020/12/19 10:44:23;;;;;;;1.40;1.27;;;4.90;98.00;;;;;;5029296;28;20454;-67
2020/12/19 10:46:50;;;;;;;2.20;1.87;;;5.00;98.00;;;;;;5030473;28;20466;-67
2020/12/19 10:49:22;;;;;;;2.40;1.63;;;5.20;98.00;;;;;;5028883;28;20465;-68
2020/12/19 10:51:48;;;;;;;1.77;1.50;;;5.30;98.00;;;;;;5030731;28;20859;-68
2020/12/19 10:54:16;;;;;;;1.80;1.53;;;5.40;98.00;;;;;;5028749;28;20625;-68
2020/12/19 10:56:42;;;;;;;1.30;1.13;;;5.60;98.00;;;;;;5030338;28;20466;-69
2020/12/19 10:59:09;;;;;;;1.97;1.40;;;5.80;98.00;;;;;;5029000;28;20512;-66
2020/12/19 11:01:35;;;;;;;2.07;1.10;;;6.00;98.00;;;;;;5032566;28;20462;-67
2020/12/19 11:04:03;;;;;;;1.37;1.33;;;6.10;98.00;;;;;;5032862;28;20458;-68
2020/12/19 11:06:29;;;;;;;2.23;1.57;;;6.30;98.00;;;;;;5034155;28;20455;-66
2020/12/19 11:08:56;;;;;;;1.20;1.00;;;6.40;98.00;;;;;;5032566;28;20832;-67
2020/12/19 11:11:23;;;;;;;2.40;1.43;;;6.60;98.00;;;;;;5034262;28;20456;-67
2020/12/19 11:13:50;;;;;;;1.60;1.30;;;6.70;98.00;;;;;;5032442;28;20494;-67
2020/12/19 11:16:21;;;;;;;2.90;1.20;;;7.00;98.00;;;;;;5034114;28;20464;-67
2020/12/19 11:18:49;;;;;;;4.70;2.27;;;7.10;98.00;;;;;;5032285;28;20462;-69
2020/12/19 11:21:17;;;;;;;3.63;2.00;;;7.20;98.00;;;;;;5033907;28;20897;-67
2020/12/19 11:23:47;;;;;;;1.30;1.20;;;7.40;98.00;;;;;;5032216;28;20959;-67
2020/12/19 11:26:13;;;;;;;1.40;1.37;;;7.60;98.00;;;;;;5033799;28;20461;-68
2020/12/19 11:28:47;;;;;;;1.50;1.30;;;7.80;98.00;;;;;;5031947;28;20462;-66
2020/12/19 11:31:14;;;;;;;1.20;1.00;;;8.00;98.00;;;;;;5032993;28;20453;-65
2020/12/19 11:33:44;;;;;;;4.70;2.17;;;8.10;98.00;;;;;;5031711;28;20867;-66
2020/12/19 11:36:10;;;;;;;1.97;1.20;;;8.30;98.00;;;;;;5031981;28;20904;-67
2020/12/19 11:38:42;;;;;;;1.73;1.10;;;8.30;98.00;;;;;;5031648;28;20469;-66
2020/12/19 11:41:09;;;;;;;1.23;1.17;;;8.40;98.00;;;;;;5032083;28;20460;-66
2020/12/19 11:43:44;;;;;;;1.40;1.10;;;8.40;98.00;;;;;;5031594;28;20466;-67
2020/12/19 11:46:11;;;;;;;1.50;1.23;;;8.40;98.00;;;;;;5033443;28;20503;-66
2020/12/19 11:48:43;;;;;;;2.13;1.30;;;8.40;98.00;;;;;;5031497;28;20465;-68
2020/12/19 11:51:09;;;;;;;2.90;1.30;;;8.50;98.00;;;;;;5032091;28;20976;-67
2020/12/19 11:53:36;;;;;;;2.07;1.20;;;8.50;98.00;;;;;;5031746;28;20898;-67
2020/12/19 11:56:05;;;;;;;1.70;1.20;;;8.60;98.00;;;;;;5033237;28;20464;-66
2020/12/19 11:58:33;;;;;;;1.40;1.20;;;8.60;98.00;;;;;;5031593;28;20480;-67
2020/12/19 12:00:59;;;;;;;1.90;1.23;;;8.70;98.00;;;;;;5033367;28;20780;-66
2020/12/19 12:03:26;;;;;;;1.30;1.10;;;8.70;98.00;;;;;;5031770;28;20456;-67
2020/12/19 12:05:52;;;;;;;3.83;2.20;;;8.70;98.00;;;;;;5033075;28;20466;-66
2020/12/19 12:08:19;;;;;;;1.20;1.00;;;8.70;98.00;;;;;;5031674;28;20960;-66
2020/12/19 12:10:45;;;;;;;2.47;2.03;;;8.70;98.00;;;;;;5033328;28;20468;-66
2020/12/19 12:13:13;;;;;;;2.33;1.57;;;8.70;98.00;;;;;;5030290;28;20562;-67
2020/12/19 12:15:40;;;;;;;1.47;1.47;;;8.70;98.00;;;;;;5033102;28;20467;-67
2020/12/19 12:18:06;;;;;;;2.30;2.10;;;8.70;98.00;;;;;;5031576;28;20952;-66
2020/12/19 12:20:34;;;;;;;2.83;1.77;;;8.80;98.00;;;;;;5033008;28;20458;-66
2020/12/19 12:23:00;;;;;;;2.40;2.20;;;8.80;98.00;;;;;;5031044;28;20486;-66
2020/12/19 12:25:27;;;;;;;1.20;1.00;;;8.90;98.00;;;;;;5031774;28;20516;-67
2020/12/19 12:27:54;;;;;;;2.10;1.90;;;8.90;98.00;;;;;;5031188;28;20464;-68
2020/12/19 12:30:22;;;;;;;1.97;1.50;;;9.00;98.00;;;;;;5031518;28;20467;-67
2020/12/19 12:32:48;;;;;;;1.20;1.10;;;9.10;98.00;;;;;;5031314;28;20495;-68
2020/12/19 12:35:15;;;;;;;2.60;1.43;;;9.20;98.00;;;;;;5032930;28;20459;-68
2020/12/19 12:37:41;;;;;;;2.30;1.50;;;9.20;98.00;;;;;;5030958;28;20458;-67
2020/12/19 12:40:10;;;;;;;1.40;1.10;;;9.30;98.00;;;;;;5032909;28;20462;-66
2020/12/19 12:42:36;;;;;;;1.40;1.33;;;9.40;98.00;;;;;;5030697;28;20481;-67
2020/12/19 12:45:03;;;;;;;1.23;1.20;;;9.40;98.00;;;;;;5032483;28;20462;-68
2020/12/19 12:47:30;;;;;;;1.20;1.20;;;9.40;98.00;;;;;;5030994;28;20470;-68
2020/12/19 12:49:57;;;;;;;2.07;1.30;;;9.40;98.00;;;;;;5033411;28;20462;-68
2020/12/19 12:52:24;;;;;;;1.67;1.30;;;9.50;98.00;;;;;;5033529;28;20458;-68
2020/12/19 12:54:50;;;;;;;1.20;1.20;;;9.60;98.00;;;;;;5031467;28;20948;-67
2020/12/19 12:57:17;;;;;;;1.57;1.30;;;9.60;98.00;;;;;;5032283;28;21002;-67
2020/12/19 12:59:45;;;;;;;1.20;1.10;;;9.60;98.00;;;;;;5032019;28;20460;-67
2020/12/19 13:02:11;;;;;;;1.80;1.27;;;9.60;98.00;;;;;;5031704;28;20470;-67